Middleton, Idaho
Current Conditions -  °F | °C
As of 3:55 PM on Tuesday 21 Oct 2014 (Local Time) from KEUL Reporting Station
Clear Clear  
Wind Chill: 63°   Ceiling: Unl
Heat Index: 63°   Visibility: 10mi
Dew Point: 34°   Wind: 8mph
Humidity: 34%   Direction: 260°W
Pressure: 30.05"   Gusts: NA
Location:  43.71°N, 116.62°W
Report Text: KEUL 212155Z AUTO 26007KT 10SM CLR 17/01 A3005 RMK AO1
Loading
Personal Weather Stations






























Interactive Weather Map
Tropical Storm Tracking
New forecast layout! Learn more

10-Day Weather Forecast

Advertisements
Track Severe Weather on mobile